• Join FlightAware (Why Join?)
  • Login
  • US Flag GB Flag 
11:28 EST


 

Airport Tracker/Info


-or-


 

Live Flight TrackerFlight Track Log ✈ AWE1913 ✈ 18-Apr-2013 ✈ KPHL - MYNN / NAS

Flight Track Log - Related Links

Times and Time Zones

All times are in EDT time to prevent confusion due to time zone crossing. See the AWE1913 flight status page for this flight to view local times or setup timezone preferences in your user account.

Time Position Orientation Groundspeed Altitude Reporting Facility
EDT Latitude Longitude Course Direction KTS MPH feet Rate Location/Type
11:09 39.8750 -75.2117 187° South 150 173 1,100  Level FAA TRACON SMA TRACON (SMA)
11:09 39.8694 -75.1942 112° Southeast 151 174 1,600 1,320 Climbing FAA TRACON SMA TRACON (SMA)
11:09 39.8622 -75.1739 115° Southeast 189 217 2,000 1,020 Climbing FAA TRACON SMA TRACON (SMA)
11:10 39.8542 -75.1514 115° Southeast 212 244 2,300 1,500 Climbing FAA TRACON SMA TRACON (SMA)
11:10 39.8353 -75.1364 149° Southeast 228 262 3,000 2,100 Climbing FAA TRACON SMA TRACON (SMA)
11:10 39.8153 -75.1408 190° South 234 269 3,700 2,520 Climbing FAA TRACON SMA TRACON (SMA)
11:11 39.4944 -75.3185 194° South  Level FlightAware Approximate
11:11 39.7958 -75.1528 205° Southwest 245 282 4,700  Level FAA TRACON SMA TRACON (SMA)
11:11 39.7772 -75.1647 206° Southwest 246 283 5,400 2,700 Climbing FAA TRACON SMA TRACON (SMA)
11:11 39.7531 -75.1811 208° Southwest 249 287 6,500 2,820 Climbing FAA TRACON SMA TRACON (SMA)
11:12 39.3675 -75.3407 185° South  Level FlightAware Approximate
11:12 39.7322 -75.1922 202° Southwest 257 296 7,300  Level FAA TRACON SMA TRACON (SMA)
11:12 39.7133 -75.2031 204° Southwest 265 305 8,000 2,700 Climbing FAA TRACON SMA TRACON (SMA)
11:12 39.6842 -75.2183 202° Southwest 269 310 9,100 2,820 Climbing FAA TRACON SMA TRACON (SMA)
11:13 39.2406 -75.3642 194° South  Level FlightAware Approximate
11:13 39.6608 -75.2256 193° South 273 314 9,900  Level FAA TRACON SMA TRACON (SMA)
11:13 39.6375 -75.2336 195° South 280 322 10,500 1,200 Climbing FAA TRACON SMA TRACON (SMA)
11:13 39.6072 -75.2442 195° South 298 343 10,700 600 Climbing FAA TRACON SMA TRACON (SMA)
11:14 39.1137 -75.3866 187° South  Level FlightAware Approximate
11:14 39.5786 -75.2542 195° South 340 391 10,900  Level FAA TRACON SMA TRACON (SMA)
11:14 39.5494 -75.2644 195° South 362 417 11,200 1,320 Climbing FAA TRACON SMA TRACON (SMA)
11:14 39.5144 -75.2753 193° South 363 418 11,800 2,220 Climbing FAA TRACON SMA TRACON (SMA)
11:15 39.4806 -75.2875 196° South 368 423 12,700 2,400 Climbing FAA TRACON SMA TRACON (SMA)
11:15 39.4500 -75.2981 195° South 370 426 13,400 1,920 Climbing FAA TRACON SMA TRACON (SMA)
11:15 39.4136 -75.3089 193° South 373 429 14,000 2,220 Climbing FAA TRACON SMA TRACON (SMA)
11:16 39.3797 -75.3211 196° South 378 435 14,900 1,920 Climbing FAA TRACON SMA TRACON (SMA)
11:16 39.3481 -75.3331 196° South 381 438 15,300 1,620 Climbing FAA TRACON SMA TRACON (SMA)
11:16 39.3069 -75.3464 194° South 386 444 16,000 1,920 Climbing FAA TRACON SMA TRACON (SMA)
11:17 39.2742 -75.3572 194° South 392 451 16,600 1,320 Climbing FAA TRACON SMA TRACON (SMA)
11:17 39.2411 -75.3689 195° South 397 457 16,900 420 Climbing FAA TRACON SMA TRACON (SMA)
11:17 39.2411 -75.3689 38° Northeast 397 457 16,900 600 Level FAA TRACON SMA TRACON (SMA)
11:19 39.0153 -75.4100 188° South 425 489 18,200 900 Climbing Washington Center
11:20 38.8944 -75.4289 187° South 435 501 19,400 1,320 Climbing Washington Center
11:21 38.7714 -75.4478 187° South 445 512 20,900 1,200 Climbing Washington Center
11:22 38.6464 -75.4667 187° South 445 512 21,800 1,200 Climbing Washington Center
11:23 38.5131 -75.4856 186° South 464 534 23,400 1,800 Climbing Washington Center
11:24 38.3900 -75.5042 187° South 464 534 25,400 1,980 Climbing Washington Center
11:25 38.2775 -75.5519 198° South 450 518 27,400 1,980 Climbing Washington Center
11:26 38.1731 -75.6181 206° Southwest 432 497 29,400 1,860 Climbing Washington Center
11:27 38.0731 -75.6789 206° Southwest 420 483 31,200 1,200 Climbing Washington Center
11:28 37.9708 -75.7339 203° Southwest 408 470 31,800 540 Climbing Washington Center
11:29 37.8644 -75.7917 203° Southwest 408 470 32,300 540 Climbing Washington Center
11:30 37.7536 -75.8492 202° Southwest 421 484 32,900 540 Climbing Washington Center
11:31 37.6389 -75.9092 202° Southwest 437 503 33,400 420 Climbing Washington Center
11:32 37.5219 -75.9689 202° Southwest 447 514 33,800 300 Climbing Washington Center
11:33 37.4028 -76.0311 203° Southwest 458 527 34,000 60 Climbing Washington Center
11:34 37.2836 -76.0931 202° Southwest 463 533 34,000  Level Washington Center
11:35 37.1644 -76.1547 202° Southwest 463 533 34,000  Level Washington Center
11:36 37.0472 -76.2164 203° Southwest 463 533 34,000  Level Washington Center
11:37 36.9303 -76.2778 203° Southwest 458 527 34,000  Level Washington Center
11:38 36.8108 -76.3364 201° Southwest 458 527 34,000  Level Washington Center
11:39 36.6936 -76.3975 203° Southwest 458 527 34,000  Level Washington Center
11:40 36.5764 -76.4583 203° Southwest 458 527 34,000  Level Washington Center
11:41 36.4614 -76.5167 202° Southwest 458 527 34,000  Level Washington Center
11:42 36.3461 -76.5744 202° Southwest 458 527 34,000  Level Washington Center
11:43 36.2308 -76.6322 202° Southwest 458 527 34,000  Level Washington Center
11:44 36.1133 -76.6950 203° Southwest 458 527 34,000  Level Washington Center
11:45 35.9961 -76.7525 202° Southwest 458 527 34,000  Level Washington Center
11:46 35.8722 -76.8147 202° Southwest 452 520 34,000  Level Washington Center
11:47 35.7528 -76.8717 201° Southwest 452 520 34,000  Level Washington Center
11:48 35.6353 -76.9311 202° Southwest 457 526 34,000  Level Washington Center
11:49 35.5178 -76.9881 202° Southwest 457 526 34,000  Level Washington Center
11:50 35.4003 -77.0444 201° Southwest 457 526 34,000  Level Washington Center
11:51 35.2828 -77.1033 202° Southwest 457 526 34,000  Level Washington Center
11:52 35.1631 -77.1597 201° Southwest 457 526 34,000  Level Washington Center
11:53 35.0747 -77.2061 203° Southwest 457 526 34,000  Level Washington Center
11:54 34.9467 -77.2669 201° Southwest 457 526 34,000  Level Washington Center
11:55 34.8186 -77.3325 203° Southwest 457 526 34,000  Level Washington Center
11:56 34.7028 -77.3883 202° Southwest 457 526 34,000  Level Washington Center
11:57 34.5853 -77.4461 202° Southwest 457 526 34,000  Level Washington Center
11:58 34.4617 -77.4761 191° South 457 526 34,000  Level Washington Center
12:00 34.3319 -77.4917 186° South 271 312 34,000  Level Jacksonville Center
12:01 34.2097 -77.5094 187° South 359 413 34,000  Level Jacksonville Center
12:02 34.0039 -77.5772 195° South 456 525 34,000  Level Jacksonville Center
12:03 33.8819 -77.6019 190° South 450 518 34,000  Level Jacksonville Center
12:04 33.7578 -77.6294 190° South 450 518 34,000  Level Jacksonville Center
12:05 33.6317 -77.6569 190° South 455 524 34,000  Level Jacksonville Center
12:06 33.5078 -77.6842 190° South 461 531 34,000  Level Jacksonville Center
12:07 33.3836 -77.7114 190° South 461 531 34,000  Level Jacksonville Center
12:08 33.2617 -77.7358 190° South 461 531 34,000 -60 Level Jacksonville Center
12:09 33.1375 -77.7628 190° South 461 531 33,900 -60 Descending Jacksonville Center
12:10 33.0175 -77.7872 190° South 461 531 33,900  Level Jacksonville Center
12:11 32.8931 -77.8114 189° South 461 531 34,000  Climbing Jacksonville Center
12:12 32.7689 -77.8383 190° South 461 531 34,000  Level Jacksonville Center
12:13 32.6469 -77.8647 190° South 461 531 34,000  Level Jacksonville Center
12:14 32.5228 -77.8914 190° South 461 531 34,000  Level Jacksonville Center
12:15 32.3903 -77.9183 190° South 461 531 34,000  Level Jacksonville Center
12:16 32.2639 -77.9450 190° South 461 531 34,000  Level Jacksonville Center
12:17 32.1419 -77.9736 191° South 461 531 34,000  Level Jacksonville Center
12:18 32.0200 -78.0022 191° South 461 531 34,000  Level Jacksonville Center
12:19 31.8978 -78.0306 191° South 461 531 34,000 -60 Level Jacksonville Center
12:20 31.7717 -78.0569 190° South 461 531 33,900  Descending Jacksonville Center
12:21 31.6494 -78.0853 191° South 461 531 34,000  Climbing Jacksonville Center
12:22 31.5272 -78.1061 188° South 461 531 34,000  Level Jacksonville Center
12:23 31.4031 -78.1344 191° South 461 531 34,000  Level Jacksonville Center
12:24 31.2789 -78.1625 191° South 461 531 34,000  Level Jacksonville Center
12:25 31.1544 -78.1883 190° South 461 531 34,000  Level Jacksonville Center
12:26 31.0303 -78.2164 191° South 461 531 34,000  Level Jacksonville Center
12:27 30.9039 -78.2442 191° South 461 531 34,000 -60 Level Jacksonville Center
12:28 30.7819 -78.2719 191° South 461 531 33,900  Descending Jacksonville Center
12:29 30.6553 -78.2975 190° South 461 531 34,000  Climbing Jacksonville Center
12:30 30.5333 -78.3250 191° South 461 531 34,000  Level Jacksonville Center
12:31 30.4111 -78.3503 190° South 461 531 34,000 -60 Level Jacksonville Center
12:33 30.1325 -78.3764 185° South 455 524 33,900  Descending Miami Center
12:34 30.0033 -78.3892 185° South 466 536 34,000  Climbing Miami Center
12:35 29.8742 -78.3800 176° South 472 543 34,000  Level Miami Center
12:36 29.7472 -78.3544 170° South 462 532 34,000  Level Miami Center
12:37 29.6181 -78.3239 168° South 470 541 34,000  Level Miami Center
12:38 29.4892 -78.2961 169° South 477 549 34,000  Level Miami Center
12:39 29.3539 -78.2633 168° South 483 556 34,000  Level Miami Center
12:40 29.2289 -78.2378 170° South 483 556 34,000  Level Miami Center
12:41 29.0956 -78.2100 170° South 478 550 34,000  Level Miami Center
12:42 28.9686 -78.1825 169° South 484 557 34,000  Level Miami Center
12:43 28.8311 -78.1525 169° South 493 567 34,000  Level Miami Center
12:44 28.6875 -78.1200 169° South 485 558 34,000  Level Miami Center
12:45 28.5583 -78.0900 168° South 473 544 34,000  Level Miami Center
12:46 28.4292 -78.0650 170° South 466 536 34,000  Level Miami Center
12:47 28.3000 -78.0378 169° South 478 550 34,000  Level Miami Center
12:48 28.1686 -78.0081 169° South 478 550 34,000  Level Miami Center
12:49 28.0353 -77.9786 169° South 487 560 34,000  Level Miami Center
12:50 27.9103 -77.9514 169° South 480 552 34,000  Level Miami Center
12:51 27.7767 -77.9244 170° South 480 552 34,000  Level Miami Center
12:52 27.6453 -77.8975 170° South 480 552 34,000  Level Miami Center
12:53 27.5139 -77.8706 170° South 491 565 34,000 -60 Level Miami Center
12:54 27.3806 -77.8458 171° South 483 556 33,900 -660 Descending Miami Center
12:55 27.2658 -77.8097 164° South 483 556 32,700 -1,560 Descending Miami Center
12:56 27.1344 -77.7900 172° South 483 556 30,800 -2,040 Descending Miami Center
12:57 27.0008 -77.7586 168° South 488 562 28,700 -2,340 Descending Miami Center
12:58 26.8717 -77.7297 169° South 482 555 26,200 -2,460 Descending Miami Center
12:59 26.7486 -77.7033 169° South 476 548 23,800 -2,460 Descending Miami Center
13:00 26.6253 -77.6886 174° South 457 526 21,300 -2,520 Descending Miami Center
13:01 26.4958 -77.6597 169° South 463 533 18,800 -2,160 Descending Miami Center
13:02 26.3708 -77.6286 167° South 468 539 17,000 -1,260 Descending Miami Center
13:03 26.2475 -77.6047 170° South 463 533 16,300 -1,800 Descending Miami Center
13:04 26.1286 -77.5808 170° South 452 520 13,400 -1,680 Descending Miami Center
13:05 26.0117 -77.5525 168° South 440 506 13,000 -240 Descending Miami Center
13:06 25.8969 -77.5286 169° South 435 501 13,000  Level Miami Center
13:07 25.7800 -77.5072 171° South 430 495 13,000  Level Miami Center
13:08 25.6839 -77.4883 170° South 401 461 13,000 -420 Level Miami Center
13:09 25.5983 -77.4969 185° South 331 381 12,200 -1,200 Descending Miami Center
13:10 25.5144 -77.5242 196° South 325 374 10,600 -1,620 Descending Miami Center
13:12 25.3388 -77.4667 180° South  Level FlightAware Approximate
13:19 25.0333 -77.4500 170° South  Level FlightAware Approximate
13:20 25.0390 -77.4662 170° South  Level Estimated